sensor_id;sensor_type;location;lat;lon;timestamp;pressure;altitude;pressure_sealevel;temperature;humidity
2549;BME280;1284;53.520;10.248;2023-10-13T00:01:33;100479.59;;;15.66;97.58
2549;BME280;1284;53.520;10.248;2023-10-13T00:03:59;100488.13;;;15.72;97.43
2549;BME280;1284;53.520;10.248;2023-10-13T00:06:27;100480.34;;;15.74;97.41
2549;BME280;1284;53.520;10.248;2023-10-13T00:08:52;100482.00;;;15.50;98.79
2549;BME280;1284;53.520;10.248;2023-10-13T00:11:18;100474.63;;;15.54;98.77
2549;BME280;1284;53.520;10.248;2023-10-13T00:13:48;100478.06;;;15.58;98.33
2549;BME280;1284;53.520;10.248;2023-10-13T00:16:18;100473.44;;;15.41;100.00
2549;BME280;1284;53.520;10.248;2023-10-13T00:18:47;100469.59;;;15.56;99.44
2549;BME280;1284;53.520;10.248;2023-10-13T00:21:14;100474.59;;;15.58;99.47
2549;BME280;1284;53.520;10.248;2023-10-13T00:23:56;100465.66;;;15.68;99.07
2549;BME280;1284;53.520;10.248;2023-10-13T00:26:25;100459.47;;;15.64;98.91
2549;BME280;1284;53.520;10.248;2023-10-13T00:28:58;100458.75;;;15.46;100.00
2549;BME280;1284;53.520;10.248;2023-10-13T00:31:39;100466.47;;;15.58;100.00
2549;BME280;1284;53.520;10.248;2023-10-13T00:34:13;100455.16;;;15.66;99.66
2549;BME280;1284;53.520;10.248;2023-10-13T00:36:53;100450.94;;;15.62;100.00
2549;BME280;1284;53.520;10.248;2023-10-13T00:39:42;100445.91;;;15.39;100.00
2549;BME280;1284;53.520;10.248;2023-10-13T00:42:14;100447.88;;;15.56;100.00
2549;BME280;1284;53.520;10.248;2023-10-13T00:45:06;100445.84;;;15.71;100.00
2549;BME280;1284;53.520;10.248;2023-10-13T00:47:33;100438.91;;;15.70;100.00
2549;BME280;1284;53.520;10.248;2023-10-13T00:50:01;100438.50;;;15.64;100.00
2549;BME280;1284;53.520;10.248;2023-10-13T00:52:27;100428.38;;;15.72;100.00
2549;BME280;1284;53.520;10.248;2023-10-13T00:54:55;100428.78;;;15.77;100.00
2549;BME280;1284;53.520;10.248;2023-10-13T00:57:20;100438.03;;;15.83;100.00
2549;BME280;1284;53.520;10.248;2023-10-13T00:59:56;100426.44;;;15.72;100.00
2549;BME280;1284;53.520;10.248;2023-10-13T01:02:37;100419.84;;;15.77;100.00
2549;BME280;1284;53.520;10.248;2023-10-13T01:05:07;100422.19;;;15.71;100.00
2549;BME280;1284;53.520;10.248;2023-10-13T01:07:38;100411.03;;;15.52;100.00
2549;BME280;1284;53.520;10.248;2023-10-13T01:10:04;100414.84;;;15.65;100.00
2549;BME280;1284;53.520;10.248;2023-10-13T01:12:30;100414.41;;;15.77;100.00
2549;BME280;1284;53.520;10.248;2023-10-13T01:14:59;100409.72;;;15.84;100.00
2549;BME280;1284;53.520;10.248;2023-10-13T01:17:24;100400.38;;;15.89;100.00
2549;BME280;1284;53.520;10.248;2023-10-13T01:19:57;100403.47;;;15.87;100.00
2549;BME280;1284;53.520;10.248;2023-10-13T01:22:24;100398.03;;;15.94;100.00
2549;BME280;1284;53.520;10.248;2023-10-13T01:24:52;100391.00;;;15.97;100.00
2549;BME280;1284;53.520;10.248;2023-10-13T01:27:29;100385.19;;;15.98;100.00
2549;BME280;1284;53.520;10.248;2023-10-13T01:29:54;100387.88;;;16.02;100.00
2549;BME280;1284;53.520;10.248;2023-10-13T01:32:35;100387.22;;;15.84;100.00
2549;BME280;1284;53.520;10.248;2023-10-13T01:35:07;100388.16;;;15.56;100.00
2549;BME280;1284;53.520;10.248;2023-10-13T01:37:32;100384.22;;;15.61;100.00
2549;BME280;1284;53.520;10.248;2023-10-13T01:39:58;100377.66;;;15.55;100.00
2549;BME280;1284;53.520;10.248;2023-10-13T01:42:23;100377.19;;;15.77;100.00
2549;BME280;1284;53.520;10.248;2023-10-13T01:44:50;100364.78;;;15.73;100.00
2549;BME280;1284;53.520;10.248;2023-10-13T01:47:16;100355.44;;;15.81;100.00
2549;BME280;1284;53.520;10.248;2023-10-13T01:49:42;100351.13;;;15.83;100.00
2549;BME280;1284;53.520;10.248;2023-10-13T01:52:09;100350.81;;;15.74;100.00
2549;BME280;1284;53.520;10.248;2023-10-13T01:54:44;100353.50;;;15.81;100.00
2549;BME280;1284;53.520;10.248;2023-10-13T01:57:13;100352.75;;;15.70;100.00
2549;BME280;1284;53.520;10.248;2023-10-13T01:59:49;100350.06;;;15.67;100.00
2549;BME280;1284;53.520;10.248;2023-10-13T02:02:15;100331.00;;;15.77;100.00
2549;BME280;1284;53.520;10.248;2023-10-13T02:04:45;100328.28;;;15.77;100.00
2549;BME280;1284;53.520;10.248;2023-10-13T02:07:23;100335.56;;;15.94;100.00
2549;BME280;1284;53.520;10.248;2023-10-13T02:09:58;100323.66;;;15.74;100.00
2549;BME280;1284;53.520;10.248;2023-10-13T02:12:24;100318.66;;;15.69;100.00
2549;BME280;1284;53.520;10.248;2023-10-13T02:15:02;100311.13;;;15.87;100.00
2549;BME280;1284;53.520;10.248;2023-10-13T02:17:30;100313.75;;;16.01;100.00
2549;BME280;1284;53.520;10.248;2023-10-13T02:20:06;100305.75;;;15.80;100.00
2549;BME280;1284;53.520;10.248;2023-10-13T02:22:33;100299.81;;;15.99;100.00
2549;BME280;1284;53.520;10.248;2023-10-13T02:25:01;100298.25;;;16.02;100.00
2549;BME280;1284;53.520;10.248;2023-10-13T02:27:27;100297.06;;;16.06;100.00
2549;BME280;1284;53.520;10.248;2023-10-13T02:29:53;100300.59;;;16.00;100.00
2549;BME280;1284;53.520;10.248;2023-10-13T02:32:24;100299.69;;;16.13;100.00
2549;BME280;1284;53.520;10.248;2023-10-13T02:34:49;100291.63;;;16.03;100.00
2549;BME280;1284;53.520;10.248;2023-10-13T02:37:15;100282.88;;;15.81;100.00
2549;BME280;1284;53.520;10.248;2023-10-13T02:39:44;100284.72;;;15.91;100.00
2549;BME280;1284;53.520;10.248;2023-10-13T02:42:15;100276.09;;;16.03;100.00
2549;BME280;1284;53.520;10.248;2023-10-13T02:44:50;100280.41;;;15.97;100.00
2549;BME280;1284;53.520;10.248;2023-10-13T02:47:16;100273.31;;;16.10;100.00
2549;BME280;1284;53.520;10.248;2023-10-13T02:49:45;100272.97;;;16.08;100.00
2549;BME280;1284;53.520;10.248;2023-10-13T02:52:13;100267.84;;;16.17;100.00
2549;BME280;1284;53.520;10.248;2023-10-13T02:54:39;100261.41;;;15.97;100.00
2549;BME280;1284;53.520;10.248;2023-10-13T02:57:15;100260.47;;;16.14;100.00
2549;BME280;1284;53.520;10.248;2023-10-13T02:59:43;100262.16;;;16.01;100.00
2549;BME280;1284;53.520;10.248;2023-10-13T03:02:13;100257.56;;;15.91;100.00
2549;BME280;1284;53.520;10.248;2023-10-13T03:04:57;100251.28;;;16.01;100.00
2549;BME280;1284;53.520;10.248;2023-10-13T03:07:30;100256.31;;;16.03;100.00
2549;BME280;1284;53.520;10.248;2023-10-13T03:09:57;100240.84;;;15.96;100.00
2549;BME280;1284;53.520;10.248;2023-10-13T03:12:25;100240.41;;;16.01;100.00
2549;BME280;1284;53.520;10.248;2023-10-13T03:14:51;100232.63;;;16.03;100.00
2549;BME280;1284;53.520;10.248;2023-10-13T03:17:21;100222.44;;;16.18;100.00
2549;BME280;1284;53.520;10.248;2023-10-13T03:19:59;100230.53;;;16.21;100.00
2549;BME280;1284;53.520;10.248;2023-10-13T03:22:25;100229.69;;;16.28;100.00
2549;BME280;1284;53.520;10.248;2023-10-13T03:24:58;100227.28;;;16.37;100.00
2549;BME280;1284;53.520;10.248;2023-10-13T03:27:38;100219.16;;;16.34;100.00
2549;BME280;1284;53.520;10.248;2023-10-13T03:30:24;100216.91;;;16.25;100.00
2549;BME280;1284;53.520;10.248;2023-10-13T03:32:59;100208.63;;;15.98;100.00
2549;BME280;1284;53.520;10.248;2023-10-13T03:35:26;100198.41;;;16.13;100.00
2549;BME280;1284;53.520;10.248;2023-10-13T03:38:03;100200.69;;;16.18;100.00
2549;BME280;1284;53.520;10.248;2023-10-13T03:40:28;100200.56;;;16.28;100.00
2549;BME280;1284;53.520;10.248;2023-10-13T03:42:58;100197.19;;;16.17;100.00
2549;BME280;1284;53.520;10.248;2023-10-13T03:45:45;100201.47;;;16.15;100.00
2549;BME280;1284;53.520;10.248;2023-10-13T03:48:16;100200.91;;;16.34;100.00
2549;BME280;1284;53.520;10.248;2023-10-13T03:50:54;100192.28;;;16.43;100.00
2549;BME280;1284;53.520;10.248;2023-10-13T03:53:32;100181.47;;;16.36;100.00
2549;BME280;1284;53.520;10.248;2023-10-13T03:56:00;100182.94;;;16.44;100.00
2549;BME280;1284;53.520;10.248;2023-10-13T03:58:41;100183.66;;;16.48;100.00
2549;BME280;1284;53.520;10.248;2023-10-13T04:01:12;100172.50;;;16.39;100.00
2549;BME280;1284;53.520;10.248;2023-10-13T04:03:44;100162.16;;;16.26;100.00
2549;BME280;1284;53.520;10.248;2023-10-13T04:06:25;100160.22;;;16.27;100.00
2549;BME280;1284;53.520;10.248;2023-10-13T04:09:22;100154.31;;;16.32;100.00
2549;BME280;1284;53.520;10.248;2023-10-13T04:12:00;100158.56;;;16.37;100.00
2549;BME280;1284;53.520;10.248;2023-10-13T04:14:27;100159.28;;;16.41;100.00
2549;BME280;1284;53.520;10.248;2023-10-13T04:17:12;100151.03;;;16.48;100.00
2549;BME280;1284;53.520;10.248;2023-10-13T04:19:41;100152.16;;;16.54;100.00
2549;BME280;1284;53.520;10.248;2023-10-13T04:22:26;100154.94;;;16.50;100.00
2549;BME280;1284;53.520;10.248;2023-10-13T04:25:15;100152.94;;;16.54;100.00
2549;BME280;1284;53.520;10.248;2023-10-13T04:27:59;100150.13;;;16.61;100.00
2549;BME280;1284;53.520;10.248;2023-10-13T04:33:33;100128.25;;;16.72;100.00
2549;BME280;1284;53.520;10.248;2023-10-13T04:36:10;100129.34;;;16.78;100.00
2549;BME280;1284;53.520;10.248;2023-10-13T04:38:59;100129.22;;;16.85;100.00
2549;BME280;1284;53.520;10.248;2023-10-13T04:41:34;100116.91;;;16.77;100.00
2549;BME280;1284;53.520;10.248;2023-10-13T04:44:16;100111.94;;;16.72;100.00
2549;BME280;1284;53.520;10.248;2023-10-13T04:47:01;100102.50;;;16.80;100.00
2549;BME280;1284;53.520;10.248;2023-10-13T04:49:29;100108.31;;;16.82;100.00
2549;BME280;1284;53.520;10.248;2023-10-13T04:52:05;100105.47;;;16.89;100.00
2549;BME280;1284;53.520;10.248;2023-10-13T04:54:34;100094.47;;;16.96;100.00
2549;BME280;1284;53.520;10.248;2023-10-13T04:57:22;100069.25;;;16.95;100.00
2549;BME280;1284;53.520;10.248;2023-10-13T05:00:06;100083.28;;;16.90;100.00
2549;BME280;1284;53.520;10.248;2023-10-13T05:02:58;100075.44;;;16.96;100.00
2549;BME280;1284;53.520;10.248;2023-10-13T05:05:26;100071.06;;;17.02;100.00
2549;BME280;1284;53.520;10.248;2023-10-13T05:08:10;100070.28;;;17.01;100.00
2549;BME280;1284;53.520;10.248;2023-10-13T05:10:54;100063.16;;;17.11;100.00
2549;BME280;1284;53.520;10.248;2023-10-13T05:13:37;100058.75;;;17.17;100.00
2549;BME280;1284;53.520;10.248;2023-10-13T05:16:21;100052.22;;;17.14;100.00
2549;BME280;1284;53.520;10.248;2023-10-13T05:19:05;100039.69;;;17.21;100.00
2549;BME280;1284;53.520;10.248;2023-10-13T05:21:49;100038.78;;;17.27;100.00
2549;BME280;1284;53.520;10.248;2023-10-13T05:24:33;100047.28;;;17.29;100.00
2549;BME280;1284;53.520;10.248;2023-10-13T05:27:17;100028.66;;;17.28;100.00
2549;BME280;1284;53.520;10.248;2023-10-13T05:30:01;100030.16;;;17.32;100.00
2549;BME280;1284;53.520;10.248;2023-10-13T05:32:45;100025.22;;;17.24;100.00
2549;BME280;1284;53.520;10.248;2023-10-13T05:35:30;100030.59;;;17.27;100.00
2549;BME280;1284;53.520;10.248;2023-10-13T05:38:14;100022.34;;;17.34;100.00
2549;BME280;1284;53.520;10.248;2023-10-13T05:41:03;100030.50;;;17.34;100.00
2549;BME280;1284;53.520;10.248;2023-10-13T05:43:48;100025.00;;;17.38;100.00
2549;BME280;1284;53.520;10.248;2023-10-13T05:46:33;100026.41;;;17.46;100.00
2549;BME280;1284;53.520;10.248;2023-10-13T05:49:02;100031.81;;;17.49;100.00
2549;BME280;1284;53.520;10.248;2023-10-13T05:51:32;100024.34;;;17.53;100.00
2549;BME280;1284;53.520;10.248;2023-10-13T05:54:03;100017.34;;;17.52;100.00
2549;BME280;1284;53.520;10.248;2023-10-13T05:56:44;100014.91;;;17.58;100.00
2549;BME280;1284;53.520;10.248;2023-10-13T05:59:30;100017.25;;;17.59;100.00
2549;BME280;1284;53.520;10.248;2023-10-13T06:02:15;100013.84;;;17.52;100.00
2549;BME280;1284;53.520;10.248;2023-10-13T06:05:07;100008.38;;;17.55;100.00
2549;BME280;1284;53.520;10.248;2023-10-13T06:07:52;100011.38;;;17.61;100.00
2549;BME280;1284;53.520;10.248;2023-10-13T06:10:37;100017.53;;;17.65;100.00
2549;BME280;1284;53.520;10.248;2023-10-13T06:13:21;100006.56;;;17.68;100.00
2549;BME280;1284;53.520;10.248;2023-10-13T06:16:09;100010.94;;;17.62;100.00
2549;BME280;1284;53.520;10.248;2023-10-13T06:18:54;100005.72;;;17.71;100.00
2549;BME280;1284;53.520;10.248;2023-10-13T06:21:38;99996.38;;;17.72;100.00
2549;BME280;1284;53.520;10.248;2023-10-13T06:24:23;99996.28;;;17.76;100.00
2549;BME280;1284;53.520;10.248;2023-10-13T06:27:07;100004.75;;;17.81;100.00
2549;BME280;1284;53.520;10.248;2023-10-13T06:29:51;99994.53;;;17.85;100.00
2549;BME280;1284;53.520;10.248;2023-10-13T06:32:19;99997.19;;;17.89;100.00
2549;BME280;1284;53.520;10.248;2023-10-13T06:34:45;99993.66;;;17.92;100.00
2549;BME280;1284;53.520;10.248;2023-10-13T06:37:17;99986.56;;;17.94;100.00
2549;BME280;1284;53.520;10.248;2023-10-13T06:39:49;99988.81;;;17.99;100.00
2549;BME280;1284;53.520;10.248;2023-10-13T06:42:15;99986.44;;;18.01;100.00
2549;BME280;1284;53.520;10.248;2023-10-13T06:44:50;99978.19;;;18.05;100.00
2549;BME280;1284;53.520;10.248;2023-10-13T06:47:18;99977.66;;;17.94;100.00
2549;BME280;1284;53.520;10.248;2023-10-13T06:49:45;99978.88;;;18.09;100.00
2549;BME280;1284;53.520;10.248;2023-10-13T06:52:13;99987.06;;;18.09;100.00
2549;BME280;1284;53.520;10.248;2023-10-13T06:54:39;99973.84;;;18.08;100.00
2549;BME280;1284;53.520;10.248;2023-10-13T06:57:06;99980.00;;;18.12;100.00
2549;BME280;1284;53.520;10.248;2023-10-13T06:59:42;99975.03;;;18.07;100.00
2549;BME280;1284;53.520;10.248;2023-10-13T07:02:08;99967.88;;;18.13;100.00
2549;BME280;1284;53.520;10.248;2023-10-13T07:04:38;99966.38;;;18.12;100.00
2549;BME280;1284;53.520;10.248;2023-10-13T07:07:05;99958.03;;;18.19;100.00
2549;BME280;1284;53.520;10.248;2023-10-13T07:09:36;99950.38;;;18.30;100.00
2549;BME280;1284;53.520;10.248;2023-10-13T07:12:03;99947.38;;;18.24;100.00
2549;BME280;1284;53.520;10.248;2023-10-13T07:14:32;99938.78;;;18.26;100.00
2549;BME280;1284;53.520;10.248;2023-10-13T07:17:09;99939.97;;;18.25;100.00
2549;BME280;1284;53.520;10.248;2023-10-13T07:19:35;99940.47;;;18.20;100.00
2549;BME280;1284;53.520;10.248;2023-10-13T07:22:10;99940.81;;;18.22;100.00
2549;BME280;1284;53.520;10.248;2023-10-13T07:24:48;99940.75;;;18.25;100.00
2549;BME280;1284;53.520;10.248;2023-10-13T07:27:21;99937.44;;;18.34;100.00
2549;BME280;1284;53.520;10.248;2023-10-13T07:29:55;99930.84;;;18.31;100.00
2549;BME280;1284;53.520;10.248;2023-10-13T07:32:41;99933.78;;;18.40;100.00
2549;BME280;1284;53.520;10.248;2023-10-13T07:35:20;99927.13;;;18.41;100.00
2549;BME280;1284;53.520;10.248;2023-10-13T07:37:50;99915.63;;;18.34;100.00
2549;BME280;1284;53.520;10.248;2023-10-13T07:40:18;99913.22;;;18.36;100.00
2549;BME280;1284;53.520;10.248;2023-10-13T07:42:49;99912.06;;;18.37;100.00
2549;BME280;1284;53.520;10.248;2023-10-13T07:45:15;99895.59;;;18.40;100.00
2549;BME280;1284;53.520;10.248;2023-10-13T07:47:51;99885.06;;;18.42;100.00
2549;BME280;1284;53.520;10.248;2023-10-13T07:50:18;99871.81;;;18.41;100.00
2549;BME280;1284;53.520;10.248;2023-10-13T07:52:52;99886.66;;;18.40;100.00
2549;BME280;1284;53.520;10.248;2023-10-13T07:55:26;99865.19;;;18.42;100.00
2549;BME280;1284;53.520;10.248;2023-10-13T07:57:51;99864.84;;;18.40;100.00
2549;BME280;1284;53.520;10.248;2023-10-13T08:00:24;99856.66;;;18.24;100.00
2549;BME280;1284;53.520;10.248;2023-10-13T08:02:59;99851.72;;;18.35;100.00
2549;BME280;1284;53.520;10.248;2023-10-13T08:05:52;99842.59;;;18.41;100.00
2549;BME280;1284;53.520;10.248;2023-10-13T08:08:32;99833.72;;;18.37;100.00
2549;BME280;1284;53.520;10.248;2023-10-13T08:13:37;99832.63;;;18.51;100.00
2549;BME280;1284;53.520;10.248;2023-10-13T08:16:03;99821.72;;;18.51;100.00
2549;BME280;1284;53.520;10.248;2023-10-13T08:18:35;99809.09;;;18.57;100.00
2549;BME280;1284;53.520;10.248;2023-10-13T08:21:04;99796.31;;;18.38;100.00
2549;BME280;1284;53.520;10.248;2023-10-13T08:23:31;99800.59;;;18.39;100.00
2549;BME280;1284;53.520;10.248;2023-10-13T08:26:24;99791.56;;;18.58;100.00
2549;BME280;1284;53.520;10.248;2023-10-13T08:29:03;99795.31;;;18.48;100.00
2549;BME280;1284;53.520;10.248;2023-10-13T08:31:50;99788.16;;;18.54;100.00
2549;BME280;1284;53.520;10.248;2023-10-13T08:34:48;99790.72;;;18.45;100.00
2549;BME280;1284;53.520;10.248;2023-10-13T08:37:14;99781.78;;;18.44;100.00
2549;BME280;1284;53.520;10.248;2023-10-13T08:39:49;99788.31;;;18.47;100.00
2549;BME280;1284;53.520;10.248;2023-10-13T08:42:44;99778.50;;;18.65;100.00
2549;BME280;1284;53.520;10.248;2023-10-13T08:45:11;99781.69;;;18.32;100.00
2549;BME280;1284;53.520;10.248;2023-10-13T08:50:35;99776.38;;;18.41;100.00
2549;BME280;1284;53.520;10.248;2023-10-13T08:53:31;99780.31;;;18.56;100.00
2549;BME280;1284;53.520;10.248;2023-10-13T09:04:08;99783.47;;;18.38;100.00
2549;BME280;1284;53.520;10.248;2023-10-13T09:14:56;99789.06;;;18.63;100.00
2549;BME280;1284;53.520;10.248;2023-10-13T09:17:31;99792.25;;;18.62;100.00
2549;BME280;1284;53.520;10.248;2023-10-13T09:22:46;99787.47;;;18.66;100.00
2549;BME280;1284;53.520;10.248;2023-10-13T09:25:37;99787.03;;;18.67;100.00
2549;BME280;1284;53.520;10.248;2023-10-13T09:28:14;99784.31;;;18.80;100.00
2549;BME280;1284;53.520;10.248;2023-10-13T09:30:52;99785.88;;;18.81;100.00
2549;BME280;1284;53.520;10.248;2023-10-13T09:33:26;99792.75;;;18.85;100.00
2549;BME280;1284;53.520;10.248;2023-10-13T09:36:06;99778.69;;;18.87;100.00
2549;BME280;1284;53.520;10.248;2023-10-13T09:38:33;99779.47;;;19.00;100.00
2549;BME280;1284;53.520;10.248;2023-10-13T09:40:59;99774.84;;;18.84;100.00
2549;BME280;1284;53.520;10.248;2023-10-13T09:43:35;99773.03;;;18.94;100.00
2549;BME280;1284;53.520;10.248;2023-10-13T09:46:04;99773.25;;;19.00;100.00
2549;BME280;1284;53.520;10.248;2023-10-13T09:51:01;99756.78;;;19.03;100.00
2549;BME280;1284;53.520;10.248;2023-10-13T09:53:27;99764.00;;;19.10;100.00
2549;BME280;1284;53.520;10.248;2023-10-13T09:58:36;99753.19;;;19.19;100.00
2549;BME280;1284;53.520;10.248;2023-10-13T10:01:03;99759.97;;;19.14;100.00
2549;BME280;1284;53.520;10.248;2023-10-13T10:03:45;99748.94;;;19.18;100.00
2549;BME280;1284;53.520;10.248;2023-10-13T10:06:22;99729.28;;;19.23;100.00
2549;BME280;1284;53.520;10.248;2023-10-13T10:09:04;99735.50;;;19.23;100.00
2549;BME280;1284;53.520;10.248;2023-10-13T10:14:28;99711.94;;;19.29;100.00
2549;BME280;1284;53.520;10.248;2023-10-13T10:17:06;99705.63;;;19.32;100.00
2549;BME280;1284;53.520;10.248;2023-10-13T10:19:53;99707.03;;;19.37;100.00
2549;BME280;1284;53.520;10.248;2023-10-13T10:22:31;99704.66;;;19.39;100.00
2549;BME280;1284;53.520;10.248;2023-10-13T10:25:04;99692.84;;;19.42;100.00
2549;BME280;1284;53.520;10.248;2023-10-13T10:27:59;99694.91;;;19.38;100.00
2549;BME280;1284;53.520;10.248;2023-10-13T10:32:57;99683.09;;;19.28;100.00
2549;BME280;1284;53.520;10.248;2023-10-13T10:35:26;99676.22;;;19.36;100.00
2549;BME280;1284;53.520;10.248;2023-10-13T10:38:11;99665.72;;;19.47;100.00
2549;BME280;1284;53.520;10.248;2023-10-13T10:41:08;99667.94;;;19.52;100.00
2549;BME280;1284;53.520;10.248;2023-10-13T10:43:39;99660.81;;;19.42;100.00
2549;BME280;1284;53.520;10.248;2023-10-13T10:46:34;99666.28;;;19.55;100.00
2549;BME280;1284;53.520;10.248;2023-10-13T10:49:08;99653.38;;;19.55;100.00
2549;BME280;1284;53.520;10.248;2023-10-13T10:51:36;99643.22;;;19.56;100.00
2549;BME280;1284;53.520;10.248;2023-10-13T10:54:18;99642.31;;;19.71;100.00
2549;BME280;1284;53.520;10.248;2023-10-13T10:56:44;99629.69;;;19.52;100.00
2549;BME280;1284;53.520;10.248;2023-10-13T10:59:09;99625.19;;;19.58;100.00
2549;BME280;1284;53.520;10.248;2023-10-13T11:01:45;99622.22;;;19.65;100.00
2549;BME280;1284;53.520;10.248;2023-10-13T11:04:16;99607.19;;;19.83;100.00
2549;BME280;1284;53.520;10.248;2023-10-13T11:06:53;99607.59;;;19.94;100.00
2549;BME280;1284;53.520;10.248;2023-10-13T11:09:27;99611.59;;;20.02;100.00
2549;BME280;1284;53.520;10.248;2023-10-13T11:14:32;99591.47;;;19.96;100.00
2549;BME280;1284;53.520;10.248;2023-10-13T11:16:59;99591.94;;;20.16;100.00
2549;BME280;1284;53.520;10.248;2023-10-13T11:19:40;99592.28;;;20.18;100.00
2549;BME280;1284;53.520;10.248;2023-10-13T11:22:14;99594.75;;;20.03;100.00
2549;BME280;1284;53.520;10.248;2023-10-13T11:25:04;99593.91;;;20.15;100.00
2549;BME280;1284;53.520;10.248;2023-10-13T11:27:36;99560.03;;;20.13;100.00
2549;BME280;1284;53.520;10.248;2023-10-13T11:30:15;99554.56;;;20.13;100.00
2549;BME280;1284;53.520;10.248;2023-10-13T11:32:46;99544.34;;;20.26;100.00
2549;BME280;1284;53.520;10.248;2023-10-13T11:35:21;99540.19;;;20.43;100.00
2549;BME280;1284;53.520;10.248;2023-10-13T11:37:49;99528.63;;;20.48;100.00
2549;BME280;1284;53.520;10.248;2023-10-13T11:40:24;99528.03;;;20.44;100.00
2549;BME280;1284;53.520;10.248;2023-10-13T11:45:47;99521.00;;;20.34;100.00
2549;BME280;1284;53.520;10.248;2023-10-13T11:48:41;99523.91;;;20.39;100.00
2549;BME280;1284;53.520;10.248;2023-10-13T11:51:16;99499.97;;;20.61;100.00
2549;BME280;1284;53.520;10.248;2023-10-13T11:53:51;99498.75;;;20.53;100.00
2549;BME280;1284;53.520;10.248;2023-10-13T11:56:18;99509.25;;;20.64;100.00
2549;BME280;1284;53.520;10.248;2023-10-13T11:58:46;99485.47;;;20.43;100.00
2549;BME280;1284;53.520;10.248;2023-10-13T12:01:12;99491.00;;;20.61;100.00
2549;BME280;1284;53.520;10.248;2023-10-13T12:03:41;99486.34;;;20.71;100.00
2549;BME280;1284;53.520;10.248;2023-10-13T12:06:26;99475.47;;;20.58;100.00
2549;BME280;1284;53.520;10.248;2023-10-13T12:09:05;99495.78;;;20.79;100.00
2549;BME280;1284;53.520;10.248;2023-10-13T12:11:37;99480.88;;;20.80;100.00
2549;BME280;1284;53.520;10.248;2023-10-13T12:14:05;99483.16;;;20.81;100.00
2549;BME280;1284;53.520;10.248;2023-10-13T12:16:45;99472.09;;;20.85;100.00
2549;BME280;1284;53.520;10.248;2023-10-13T12:19:22;99456.44;;;20.94;100.00
2549;BME280;1284;53.520;10.248;2023-10-13T12:21:49;99478.38;;;21.03;100.00
2549;BME280;1284;53.520;10.248;2023-10-13T12:24:15;99479.00;;;21.07;100.00
2549;BME280;1284;53.520;10.248;2023-10-13T12:27:10;99468.44;;;20.97;100.00
2549;BME280;1284;53.520;10.248;2023-10-13T12:29:48;99466.81;;;21.08;100.00
2549;BME280;1284;53.520;10.248;2023-10-13T12:32:14;99451.28;;;21.14;100.00
2549;BME280;1284;53.520;10.248;2023-10-13T12:34:42;99468.94;;;21.22;100.00
2549;BME280;1284;53.520;10.248;2023-10-13T12:37:29;99478.56;;;21.27;100.00
2549;BME280;1284;53.520;10.248;2023-10-13T12:40:19;99474.88;;;21.12;100.00
2549;BME280;1284;53.520;10.248;2023-10-13T12:43:04;99476.72;;;21.24;100.00
2549;BME280;1284;53.520;10.248;2023-10-13T12:45:49;99467.13;;;21.28;100.00
2549;BME280;1284;53.520;10.248;2023-10-13T12:48:35;99452.38;;;21.26;100.00
2549;BME280;1284;53.520;10.248;2023-10-13T12:51:20;99472.59;;;21.28;100.00
2549;BME280;1284;53.520;10.248;2023-10-13T12:56:13;99474.13;;;21.29;100.00
2549;BME280;1284;53.520;10.248;2023-10-13T12:58:39;99457.69;;;21.20;100.00
2549;BME280;1284;53.520;10.248;2023-10-13T13:01:04;99460.41;;;21.29;100.00
2549;BME280;1284;53.520;10.248;2023-10-13T13:03:31;99450.69;;;21.28;100.00
2549;BME280;1284;53.520;10.248;2023-10-13T13:05:58;99448.56;;;21.23;100.00
2549;BME280;1284;53.520;10.248;2023-10-13T13:08:24;99432.13;;;21.32;100.00
2549;BME280;1284;53.520;10.248;2023-10-13T13:10:50;99424.34;;;21.40;100.00
2549;BME280;1284;53.520;10.248;2023-10-13T13:13:16;99438.50;;;21.47;100.00
2549;BME280;1284;53.520;10.248;2023-10-13T13:15:49;99427.56;;;21.38;100.00
2549;BME280;1284;53.520;10.248;2023-10-13T13:18:15;99416.59;;;21.38;100.00
2549;BME280;1284;53.520;10.248;2023-10-13T13:20:40;99419.63;;;21.31;100.00
2549;BME280;1284;53.520;10.248;2023-10-13T13:23:18;99403.81;;;21.44;100.00
2549;BME280;1284;53.520;10.248;2023-10-13T13:25:47;99405.47;;;21.51;100.00
2549;BME280;1284;53.520;10.248;2023-10-13T13:28:14;99397.06;;;21.54;100.00
2549;BME280;1284;53.520;10.248;2023-10-13T13:30:43;99390.84;;;21.63;100.00
2549;BME280;1284;53.520;10.248;2023-10-13T13:33:09;99385.91;;;21.76;100.00
2549;BME280;1284;53.520;10.248;2023-10-13T13:35:38;99385.75;;;21.80;100.00
2549;BME280;1284;53.520;10.248;2023-10-13T13:38:04;99375.53;;;21.89;100.00
2549;BME280;1284;53.520;10.248;2023-10-13T13:40:39;99362.88;;;21.92;100.00
2549;BME280;1284;53.520;10.248;2023-10-13T13:43:05;99358.06;;;21.87;100.00
2549;BME280;1284;53.520;10.248;2023-10-13T13:45:32;99361.03;;;21.98;100.00
2549;BME280;1284;53.520;10.248;2023-10-13T13:48:00;99351.31;;;21.97;100.00
2549;BME280;1284;53.520;10.248;2023-10-13T13:50:29;99347.31;;;21.98;100.00
2549;BME280;1284;53.520;10.248;2023-10-13T13:52:57;99349.44;;;22.03;100.00
2549;BME280;1284;53.520;10.248;2023-10-13T13:55:23;99347.44;;;22.03;99.32
2549;BME280;1284;53.520;10.248;2023-10-13T13:57:51;99323.88;;;21.97;99.39
2549;BME280;1284;53.520;10.248;2023-10-13T14:00:18;99331.34;;;21.96;98.90
2549;BME280;1284;53.520;10.248;2023-10-13T14:02:47;99331.66;;;21.98;99.37
2549;BME280;1284;53.520;10.248;2023-10-13T14:05:14;99336.72;;;21.91;98.68
2549;BME280;1284;53.520;10.248;2023-10-13T14:07:44;99329.66;;;21.99;98.77
2549;BME280;1284;53.520;10.248;2023-10-13T14:10:19;99339.16;;;21.89;97.59
2549;BME280;1284;53.520;10.248;2023-10-13T14:13:04;99353.75;;;21.95;97.74
2549;BME280;1284;53.520;10.248;2023-10-13T14:15:38;99336.41;;;21.89;97.50
2549;BME280;1284;53.520;10.248;2023-10-13T14:18:12;99335.22;;;21.81;97.17